createdAt,value
2018-05-16T00:00:42.325Z,47.77
2018-05-16T00:01:45.645Z,47.82
2018-05-16T00:02:48.975Z,47.88
2018-05-16T00:03:52.307Z,47.96
2018-05-16T00:04:55.630Z,48.02
2018-05-16T00:05:58.986Z,48.09
2018-05-16T00:07:02.343Z,48.13
2018-05-16T00:08:05.714Z,48.21
2018-05-16T00:09:09.032Z,48.27
2018-05-16T00:10:12.366Z,48.34
2018-05-16T00:11:15.710Z,48.38
2018-05-16T00:12:19.038Z,48.42
2018-05-16T00:13:22.370Z,48.46
2018-05-16T00:14:25.708Z,48.49
2018-05-16T00:15:29.042Z,48.53
2018-05-16T00:16:32.409Z,48.58
2018-05-16T00:17:35.743Z,48.59
2018-05-16T00:18:39.080Z,48.63
2018-05-16T00:19:42.410Z,48.68
2018-05-16T00:20:45.739Z,48.75
2018-05-16T00:21:49.117Z,48.83
2018-05-16T00:22:52.418Z,48.93
2018-05-16T00:23:55.751Z,49.02
2018-05-16T00:24:59.156Z,49.11
2018-05-16T00:26:02.395Z,49.19
2018-05-16T00:27:05.750Z,49.28
2018-05-16T00:28:09.099Z,49.40
2018-05-16T00:29:12.419Z,49.44
2018-05-16T00:30:15.754Z,49.52
2018-05-16T00:31:19.154Z,49.57
2018-05-16T00:32:22.507Z,49.63
2018-05-16T00:33:25.815Z,49.66
2018-05-16T00:34:29.171Z,49.63
2018-05-16T00:35:32.458Z,49.68
2018-05-16T00:36:35.786Z,49.74
2018-05-16T00:37:39.131Z,49.76
2018-05-16T00:38:42.454Z,49.77
2018-05-16T00:39:45.791Z,49.80
2018-05-16T00:40:49.154Z,49.81
2018-05-16T00:41:52.469Z,49.84
2018-05-16T00:42:55.818Z,49.86
2018-05-16T00:43:59.313Z,49.87
2018-05-16T00:45:02.707Z,49.92
2018-05-16T00:46:06.055Z,49.93
2018-05-16T00:47:09.400Z,49.95
2018-05-16T00:48:12.750Z,49.96
2018-05-16T00:49:16.080Z,50.01
2018-05-16T00:50:19.470Z,50.04
2018-05-16T00:51:32.558Z,50.07
2018-05-16T00:52:35.876Z,50.15
2018-05-16T00:53:39.223Z,50.17
2018-05-16T00:54:42.541Z,50.23
2018-05-16T00:55:45.858Z,50.26
2018-05-16T00:56:49.171Z,50.28
2018-05-16T00:57:52.491Z,50.31
2018-05-16T00:58:55.838Z,50.34
2018-05-16T00:59:59.151Z,50.36
2018-05-16T01:01:02.488Z,50.39
2018-05-16T01:02:05.837Z,50.43
2018-05-16T01:03:09.199Z,50.46
2018-05-16T01:04:12.544Z,50.49
2018-05-16T01:05:16.288Z,50.53
2018-05-16T01:06:19.552Z,50.58
2018-05-16T01:07:22.879Z,50.62
2018-05-16T01:08:26.201Z,50.66
2018-05-16T01:09:29.554Z,50.72
2018-05-16T01:10:32.872Z,50.77
2018-05-16T01:11:36.200Z,50.80
2018-05-16T01:12:39.533Z,50.86
2018-05-16T01:13:43.548Z,50.90
2018-05-16T01:14:46.954Z,50.92
2018-05-16T01:15:50.288Z,50.96
2018-05-16T01:16:53.635Z,50.99
2018-05-16T01:17:56.963Z,51.03
2018-05-16T01:19:00.579Z,51.05
2018-05-16T01:20:03.937Z,51.06
2018-05-16T01:21:07.264Z,51.09
2018-05-16T01:22:10.603Z,51.12
2018-05-16T01:23:13.935Z,51.14
2018-05-16T01:24:17.281Z,51.13
2018-05-16T01:25:20.617Z,51.18
2018-05-16T01:26:23.942Z,51.25
2018-05-16T01:27:27.281Z,51.33
2018-05-16T01:28:30.610Z,51.41
2018-05-16T01:29:33.922Z,51.45
2018-05-16T01:30:37.274Z,51.52
2018-05-16T01:31:40.606Z,51.56
2018-05-16T01:32:43.918Z,51.62
2018-05-16T01:33:47.242Z,51.64
2018-05-16T01:34:50.579Z,51.68
2018-05-16T01:35:53.941Z,51.72
2018-05-16T01:36:57.248Z,51.75
2018-05-16T01:38:00.571Z,51.75
2018-05-16T01:39:04.163Z,51.71
2018-05-16T01:40:07.484Z,51.72
2018-05-16T01:41:10.838Z,51.66
2018-05-16T01:42:14.158Z,51.64
2018-05-16T01:43:17.494Z,51.60
2018-05-16T01:44:21.001Z,51.58
2018-05-16T01:45:24.347Z,51.55
2018-05-16T01:46:27.697Z,51.47
2018-05-16T01:47:31.024Z,51.44
2018-05-16T01:48:34.479Z,51.33
2018-05-16T01:49:37.811Z,51.28
2018-05-16T01:50:41.143Z,51.21
2018-05-16T01:51:44.490Z,51.16
2018-05-16T01:52:47.835Z,51.26
2018-05-16T01:53:51.170Z,51.38
2018-05-16T01:54:54.508Z,51.41
2018-05-16T01:55:57.839Z,51.64
2018-05-16T01:57:01.176Z,51.83
2018-05-16T01:58:04.508Z,51.97
2018-05-16T01:59:07.846Z,52.14
2018-05-16T02:00:11.200Z,52.28
2018-05-16T02:01:14.767Z,52.65
2018-05-16T02:02:18.114Z,52.90
2018-05-16T02:03:21.428Z,53.23
2018-05-16T02:04:24.754Z,53.27
2018-05-16T02:05:28.096Z,53.48
2018-05-16T02:06:31.521Z,53.64
2018-05-16T02:07:34.862Z,53.92
2018-05-16T02:08:38.197Z,53.92
2018-05-16T02:09:41.529Z,53.93
2018-05-16T02:10:44.867Z,53.99
2018-05-16T02:11:48.184Z,54.06
2018-05-16T02:12:51.535Z,54.24
2018-05-16T02:13:54.884Z,54.22
2018-05-16T02:14:58.211Z,54.05
2018-05-16T02:16:01.538Z,53.68
2018-05-16T02:17:04.875Z,53.50
2018-05-16T02:18:08.217Z,53.39
2018-05-16T02:19:11.541Z,53.21
2018-05-16T02:20:14.890Z,53.22
2018-05-16T02:21:18.211Z,53.05
2018-05-16T02:22:21.529Z,52.92
2018-05-16T02:23:24.890Z,53.02
2018-05-16T02:24:28.224Z,52.95
2018-05-16T02:25:31.546Z,52.84
2018-05-16T02:26:34.859Z,52.69
2018-05-16T02:27:38.330Z,52.49
2018-05-16T02:28:41.671Z,52.33
2018-05-16T02:29:45.003Z,52.31
2018-05-16T02:30:48.320Z,52.37
2018-05-16T02:31:51.633Z,52.33
2018-05-16T02:32:54.950Z,52.30
2018-05-16T02:33:58.285Z,52.27
2018-05-16T02:35:01.613Z,52.15
2018-05-16T02:36:04.905Z,52.13
2018-05-16T02:37:08.250Z,52.09
2018-05-16T02:38:11.575Z,52.11
2018-05-16T02:39:14.929Z,52.20
2018-05-16T02:40:18.247Z,52.24
2018-05-16T02:41:21.570Z,52.30
2018-05-16T02:42:24.892Z,52.33
2018-05-16T02:43:28.205Z,52.34
2018-05-16T02:44:31.755Z,52.43
2018-05-16T02:45:35.074Z,52.54
2018-05-16T02:46:38.397Z,52.54
2018-05-16T02:47:41.812Z,52.57
2018-05-16T02:48:45.114Z,52.58
2018-05-16T02:49:48.454Z,52.60
2018-05-16T02:50:51.759Z,52.70
2018-05-16T02:51:55.063Z,52.73
2018-05-16T02:52:58.388Z,52.72
2018-05-16T02:54:01.700Z,52.75
2018-05-16T02:55:05.031Z,52.77
2018-05-16T02:56:08.364Z,52.67
2018-05-16T02:57:11.672Z,52.59
2018-05-16T02:58:14.993Z,52.54
2018-05-16T02:59:18.302Z,52.55
2018-05-16T03:00:21.636Z,52.57
2018-05-16T03:01:24.959Z,52.60
2018-05-16T03:02:28.328Z,52.65
2018-05-16T03:03:31.662Z,52.66
2018-05-16T03:04:34.961Z,52.68
2018-05-16T03:05:38.299Z,52.70
2018-05-16T03:06:41.607Z,52.73
2018-05-16T03:07:44.915Z,52.78
2018-05-16T03:08:48.225Z,52.84
2018-05-16T03:09:51.541Z,52.93
2018-05-16T03:10:54.945Z,53.04
2018-05-16T03:11:58.243Z,53.19
2018-05-16T03:13:01.548Z,53.36
2018-05-16T03:14:04.897Z,53.47
2018-05-16T03:15:08.213Z,53.58
2018-05-16T03:16:11.559Z,53.64
2018-05-16T03:17:14.883Z,53.70
2018-05-16T03:18:18.295Z,53.75
2018-05-16T03:19:21.651Z,53.79
2018-05-16T03:20:24.956Z,53.85
2018-05-16T03:21:28.457Z,53.94
2018-05-16T03:22:31.783Z,54.06
2018-05-16T03:23:35.114Z,54.13
2018-05-16T03:24:38.418Z,54.22
2018-05-16T03:25:42.010Z,54.21
2018-05-16T03:26:45.350Z,54.20
2018-05-16T03:27:48.673Z,54.18
2018-05-16T03:28:52.156Z,54.20
2018-05-16T03:29:55.472Z,54.29
2018-05-16T03:30:58.800Z,54.33
2018-05-16T03:32:02.155Z,54.40
2018-05-16T03:33:05.487Z,54.47
2018-05-16T03:34:08.803Z,54.53
2018-05-16T03:35:12.115Z,54.63
2018-05-16T03:36:15.420Z,54.67
2018-05-16T03:37:18.751Z,54.71
2018-05-16T03:38:22.081Z,54.74
2018-05-16T03:39:25.406Z,54.78
2018-05-16T03:40:28.713Z,54.83
2018-05-16T03:41:32.049Z,54.87
2018-05-16T03:42:35.411Z,54.95
2018-05-16T03:43:38.985Z,55.06
2018-05-16T03:44:42.590Z,55.13
2018-05-16T03:45:45.928Z,55.18
2018-05-16T03:46:49.259Z,55.24
2018-05-16T03:47:52.611Z,55.33
2018-05-16T03:48:55.925Z,55.39
2018-05-16T03:49:59.242Z,55.45
2018-05-16T03:51:02.571Z,55.51
2018-05-16T03:52:05.956Z,55.56
2018-05-16T03:53:09.235Z,55.61
2018-05-16T03:54:12.581Z,55.73
2018-05-16T03:55:15.889Z,55.83
2018-05-16T03:56:19.284Z,55.93
2018-05-16T03:57:34.183Z,55.99
2018-05-16T03:58:49.259Z,56.08
2018-05-16T04:00:04.322Z,56.21
2018-05-16T04:01:19.262Z,56.30
2018-05-16T04:02:34.446Z,56.41
2018-05-16T04:03:49.644Z,56.45
2018-05-16T04:04:52.971Z,56.50
2018-05-16T04:05:56.282Z,56.54
2018-05-16T04:06:59.590Z,56.66
2018-05-16T04:08:02.923Z,56.73
2018-05-16T04:09:06.262Z,56.72
2018-05-16T04:10:09.584Z,56.72
2018-05-16T04:11:12.912Z,56.75
2018-05-16T04:12:16.238Z,56.79
2018-05-16T04:13:19.568Z,56.81
2018-05-16T04:14:22.960Z,56.84
2018-05-16T04:15:26.275Z,56.88
2018-05-16T04:16:29.591Z,56.94
2018-05-16T04:17:32.908Z,56.93
2018-05-16T04:18:36.218Z,56.93
2018-05-16T04:19:39.559Z,56.91
2018-05-16T04:20:43.095Z,56.95
2018-05-16T04:21:46.405Z,56.97
2018-05-16T04:22:49.719Z,57.07
2018-05-16T04:23:53.105Z,57.09
2018-05-16T04:24:56.466Z,57.13
2018-05-16T04:25:59.779Z,57.14
2018-05-16T04:27:03.106Z,57.10
2018-05-16T04:28:06.451Z,57.11
2018-05-16T04:29:09.744Z,57.10
2018-05-16T04:30:13.077Z,57.17
2018-05-16T04:31:16.395Z,57.21
2018-05-16T04:32:19.740Z,57.27
2018-05-16T04:33:23.069Z,57.30
2018-05-16T04:34:26.433Z,57.33
2018-05-16T04:35:29.872Z,57.31
2018-05-16T04:36:33.114Z,57.37
2018-05-16T04:37:36.505Z,57.39
2018-05-16T04:38:39.887Z,57.39
2018-05-16T04:39:43.302Z,57.45
2018-05-16T04:40:46.651Z,57.49
2018-05-16T04:41:50.006Z,57.52
2018-05-16T04:42:53.320Z,57.51
2018-05-16T04:43:56.625Z,57.55
2018-05-16T04:45:00.198Z,57.59
2018-05-16T04:46:03.579Z,57.60
2018-05-16T04:47:06.895Z,57.61
2018-05-16T04:48:10.215Z,57.64
2018-05-16T04:49:13.666Z,57.63
2018-05-16T04:50:16.975Z,57.64
2018-05-16T04:51:20.339Z,57.71
2018-05-16T04:52:23.677Z,57.70
2018-05-16T04:53:27.015Z,57.71
2018-05-16T04:54:30.368Z,57.71
2018-05-16T04:55:33.719Z,57.72
2018-05-16T04:56:37.067Z,57.71
2018-05-16T04:57:40.406Z,57.69
2018-05-16T04:58:43.719Z,57.63
2018-05-16T04:59:47.035Z,57.60
2018-05-16T05:00:50.439Z,57.47
2018-05-16T05:01:53.717Z,57.35
2018-05-16T05:02:57.038Z,57.36
2018-05-16T05:04:00.356Z,57.30
2018-05-16T05:05:03.673Z,57.29
2018-05-16T05:06:07.022Z,57.30
2018-05-16T05:07:10.361Z,57.36
2018-05-16T05:08:13.710Z,57.43
2018-05-16T05:09:17.049Z,57.49
2018-05-16T05:10:20.365Z,57.36
2018-05-16T05:11:23.685Z,57.30
2018-05-16T05:12:27.026Z,57.22
2018-05-16T05:13:30.342Z,57.12
2018-05-16T05:14:33.675Z,57.07
2018-05-16T05:15:37.007Z,57.03
2018-05-16T05:16:40.342Z,56.98
2018-05-16T05:17:43.691Z,56.90
2018-05-16T05:18:47.139Z,56.81
2018-05-16T05:19:50.417Z,56.71
2018-05-16T05:20:53.764Z,56.56
2018-05-16T05:21:57.092Z,56.40
2018-05-16T05:23:00.435Z,56.16
2018-05-16T05:24:03.821Z,55.82
2018-05-16T05:25:07.073Z,55.44
2018-05-16T05:26:10.400Z,55.02
2018-05-16T05:27:13.727Z,54.66
2018-05-16T05:28:17.078Z,54.24
2018-05-16T05:29:20.390Z,53.74
2018-05-16T05:30:23.734Z,53.24
2018-05-16T05:31:27.043Z,52.78
2018-05-16T05:32:30.389Z,52.35
2018-05-16T05:33:33.784Z,51.83
2018-05-16T05:34:37.123Z,51.30
2018-05-16T05:35:40.461Z,50.76
2018-05-16T05:36:43.793Z,50.33
2018-05-16T05:37:47.113Z,49.93
2018-05-16T05:38:50.667Z,49.52
2018-05-16T05:39:54.094Z,49.17
2018-05-16T05:40:57.507Z,48.83
2018-05-16T05:42:00.834Z,48.50
2018-05-16T05:43:04.178Z,48.08
2018-05-16T05:44:07.531Z,47.64
2018-05-16T05:45:11.054Z,47.22
2018-05-16T05:46:14.397Z,46.84
2018-05-16T05:47:17.725Z,46.46
2018-05-16T05:48:21.045Z,46.20
2018-05-16T05:49:24.395Z,45.98
2018-05-16T05:50:27.750Z,45.64
2018-05-16T05:51:31.191Z,45.31
2018-05-16T05:52:34.566Z,45.06
2018-05-16T05:53:37.914Z,44.75
2018-05-16T05:54:41.259Z,44.44
2018-05-16T05:55:44.588Z,44.14
2018-05-16T05:56:48.003Z,43.91
2018-05-16T05:57:51.343Z,43.68
2018-05-16T05:58:54.695Z,43.40
2018-05-16T05:59:58.281Z,43.14
2018-05-16T06:01:01.608Z,42.78
2018-05-16T06:02:04.915Z,42.43
2018-05-16T06:03:08.244Z,42.13
2018-05-16T06:04:11.562Z,41.87
2018-05-16T06:05:14.898Z,41.54
2018-05-16T06:06:18.439Z,41.21
2018-05-16T06:07:21.760Z,40.96
2018-05-16T06:08:25.089Z,40.77
2018-05-16T06:09:28.888Z,40.56
2018-05-16T06:10:32.262Z,40.32
2018-05-16T06:11:35.653Z,40.06
2018-05-16T06:12:39.160Z,39.82
2018-05-16T06:13:42.418Z,39.50
2018-05-16T06:14:45.735Z,39.31
2018-05-16T06:15:49.144Z,39.06
2018-05-16T06:16:52.466Z,38.86
2018-05-16T06:17:55.787Z,38.66
2018-05-16T06:18:59.102Z,38.42
2018-05-16T06:20:02.422Z,38.15
2018-05-16T06:21:05.815Z,37.89
2018-05-16T06:22:09.177Z,37.59
2018-05-16T06:23:12.532Z,37.29
2018-05-16T06:24:15.838Z,37.03
2018-05-16T06:25:19.155Z,36.71
2018-05-16T06:26:22.507Z,36.56
2018-05-16T06:27:25.903Z,36.38
2018-05-16T06:28:29.274Z,36.28
2018-05-16T06:30:13.374Z,36.37
2018-05-16T06:31:16.694Z,36.16
2018-05-16T06:32:20.022Z,35.96
2018-05-16T06:33:23.360Z,35.83
2018-05-16T06:34:26.683Z,35.84
2018-05-16T06:35:30.017Z,35.72
2018-05-16T06:36:33.342Z,35.55
2018-05-16T06:37:36.681Z,35.37
2018-05-16T06:38:39.999Z,35.15
2018-05-16T06:39:43.330Z,34.88
2018-05-16T06:40:46.650Z,34.67
2018-05-16T06:41:49.976Z,34.52
2018-05-16T06:42:53.315Z,34.37
2018-05-16T06:43:56.635Z,34.25
2018-05-16T06:44:59.934Z,34.04
2018-05-16T06:46:03.472Z,33.84
2018-05-16T06:47:06.831Z,33.62
2018-05-16T06:48:10.161Z,33.36
2018-05-16T06:49:13.474Z,33.17
2018-05-16T06:50:16.841Z,32.99
2018-05-16T06:51:20.162Z,32.82
2018-05-16T06:52:23.504Z,32.65
2018-05-16T06:53:26.842Z,32.47
2018-05-16T06:54:30.151Z,32.30
2018-05-16T06:55:33.470Z,32.20
2018-05-16T06:56:36.800Z,31.96
2018-05-16T06:57:40.116Z,31.92
2018-05-16T06:58:43.464Z,31.81
2018-05-16T06:59:46.996Z,31.73
2018-05-16T07:00:50.311Z,31.79
2018-05-16T07:01:53.632Z,31.83
2018-05-16T07:02:56.977Z,31.83
2018-05-16T07:04:00.419Z,31.93
2018-05-16T07:05:03.693Z,32.13
2018-05-16T07:06:07.004Z,32.34
2018-05-16T07:07:10.680Z,32.68
2018-05-16T07:08:14.001Z,32.96
2018-05-16T07:09:17.333Z,33.20
2018-05-16T07:10:20.662Z,33.49
2018-05-16T07:11:23.976Z,33.70
2018-05-16T07:12:27.305Z,34.01
2018-05-16T07:13:30.722Z,34.29
2018-05-16T07:14:34.008Z,34.60
2018-05-16T07:15:37.332Z,34.80
2018-05-16T07:16:40.652Z,35.11
2018-05-16T07:17:43.964Z,35.47
2018-05-16T07:18:47.343Z,35.56
2018-05-16T07:19:50.695Z,35.75
2018-05-16T07:20:54.040Z,36.00
2018-05-16T07:21:57.433Z,36.37
2018-05-16T07:23:00.761Z,36.84
2018-05-16T07:24:04.221Z,37.26
2018-05-16T07:25:07.732Z,37.67
2018-05-16T07:26:11.035Z,38.07
2018-05-16T07:27:14.389Z,38.28
2018-05-16T07:28:17.740Z,38.45
2018-05-16T07:29:21.057Z,38.72
2018-05-16T07:30:24.443Z,38.91
2018-05-16T07:31:27.776Z,38.99
2018-05-16T07:32:31.154Z,39.08
2018-05-16T07:33:34.406Z,39.19
2018-05-16T07:34:37.769Z,39.29
2018-05-16T07:35:41.111Z,39.43
2018-05-16T07:36:44.463Z,39.45
2018-05-16T07:37:47.778Z,39.60
2018-05-16T07:38:51.127Z,39.69
2018-05-16T07:39:54.493Z,39.74
2018-05-16T07:40:57.867Z,39.84
2018-05-16T07:42:01.182Z,39.96
2018-05-16T07:43:04.520Z,40.18
2018-05-16T07:44:07.844Z,40.39
2018-05-16T07:45:11.180Z,40.45
2018-05-16T07:46:14.751Z,40.50
2018-05-16T07:47:18.080Z,40.32
2018-05-16T07:48:21.399Z,40.39
2018-05-16T07:49:24.723Z,40.46
2018-05-16T07:50:28.055Z,40.50
2018-05-16T07:51:31.379Z,40.64
2018-05-16T07:52:34.753Z,40.94
2018-05-16T07:53:38.061Z,41.26
2018-05-16T07:54:41.390Z,41.51
2018-05-16T07:55:44.744Z,41.55
2018-05-16T07:56:48.090Z,41.53
2018-05-16T07:57:51.411Z,41.51
2018-05-16T07:58:54.759Z,41.62
2018-05-16T07:59:58.083Z,41.45
2018-05-16T08:01:01.409Z,41.68
2018-05-16T08:02:04.831Z,41.51
2018-05-16T08:03:08.244Z,41.41
2018-05-16T08:04:11.485Z,41.44
2018-05-16T08:05:14.787Z,41.45
2018-05-16T08:06:18.137Z,41.53
2018-05-16T08:07:21.517Z,41.66
2018-05-16T08:08:24.851Z,41.69
2018-05-16T08:09:28.201Z,41.72
2018-05-16T08:10:31.499Z,41.85
2018-05-16T08:11:34.851Z,41.73
2018-05-16T08:12:38.195Z,41.62
2018-05-16T08:13:41.516Z,41.58
2018-05-16T08:14:44.851Z,41.57
2018-05-16T08:15:48.168Z,41.59
2018-05-16T08:16:51.520Z,41.58
2018-05-16T08:17:54.862Z,41.56
2018-05-16T08:18:58.199Z,41.58
2018-05-16T08:20:01.630Z,41.63
2018-05-16T08:21:04.973Z,41.42
2018-05-16T08:22:08.346Z,41.30
2018-05-16T08:23:11.671Z,41.17
2018-05-16T08:24:16.281Z,41.10
2018-05-16T08:25:19.596Z,40.95
2018-05-16T08:26:22.919Z,40.90
2018-05-16T08:27:26.266Z,40.88
2018-05-16T08:28:29.604Z,40.79
2018-05-16T08:29:32.921Z,40.71
2018-05-16T08:30:36.243Z,40.70
2018-05-16T08:31:39.590Z,40.67
2018-05-16T08:32:42.894Z,40.68
2018-05-16T08:33:46.268Z,40.61
2018-05-16T08:34:49.574Z,40.57
2018-05-16T08:35:52.892Z,40.56
2018-05-16T08:36:56.280Z,40.56
2018-05-16T08:37:59.608Z,40.58
2018-05-16T08:39:02.989Z,40.66
2018-05-16T08:40:06.353Z,40.69
2018-05-16T08:41:09.756Z,40.66
2018-05-16T08:42:13.062Z,40.54
2018-05-16T08:43:16.388Z,40.35
2018-05-16T08:44:19.718Z,40.14
2018-05-16T08:45:23.029Z,39.91
2018-05-16T08:46:26.548Z,39.81
2018-05-16T08:47:29.858Z,39.81
2018-05-16T08:48:33.192Z,39.75
2018-05-16T08:49:36.959Z,39.68
2018-05-16T08:50:40.272Z,39.64
2018-05-16T08:51:43.590Z,39.68
2018-05-16T08:52:46.908Z,39.77
2018-05-16T08:53:50.228Z,39.80
2018-05-16T08:54:53.562Z,39.80
2018-05-16T08:55:56.916Z,39.86
2018-05-16T08:57:00.244Z,39.96
2018-05-16T08:58:03.563Z,40.05
2018-05-16T08:59:06.903Z,39.92
2018-05-16T09:00:10.245Z,39.78
2018-05-16T09:01:13.581Z,39.72
2018-05-16T09:02:16.904Z,39.71
2018-05-16T09:03:20.221Z,39.65
2018-05-16T09:04:23.544Z,39.73
2018-05-16T09:05:26.889Z,39.83
2018-05-16T09:06:30.237Z,39.78
2018-05-16T09:07:33.538Z,39.74
2018-05-16T09:08:36.882Z,39.61
2018-05-16T09:09:40.193Z,39.52
2018-05-16T09:10:43.537Z,39.48
2018-05-16T09:11:46.852Z,39.39
2018-05-16T09:12:50.176Z,39.29
2018-05-16T09:13:53.482Z,39.22
2018-05-16T09:14:56.795Z,39.14
2018-05-16T09:16:00.142Z,39.12
2018-05-16T09:17:03.491Z,39.11
2018-05-16T09:18:06.819Z,39.09
2018-05-16T09:19:10.159Z,39.03
2018-05-16T09:20:13.462Z,38.98
2018-05-16T09:21:16.817Z,38.77
2018-05-16T09:22:20.320Z,38.63
2018-05-16T09:23:23.726Z,38.68
2018-05-16T09:24:27.066Z,38.60
2018-05-16T09:25:30.849Z,38.65
2018-05-16T09:26:34.166Z,38.65
2018-05-16T09:27:37.474Z,38.76
2018-05-16T09:28:40.804Z,38.88
2018-05-16T09:29:44.141Z,39.00
2018-05-16T09:30:47.451Z,39.07
2018-05-16T09:31:50.790Z,39.07
2018-05-16T09:32:54.121Z,38.96
2018-05-16T09:33:57.416Z,38.97
2018-05-16T09:35:00.731Z,39.07
2018-05-16T09:36:04.075Z,39.17
2018-05-16T09:37:07.709Z,39.12
2018-05-16T09:38:11.032Z,39.15
2018-05-16T09:39:14.368Z,39.21
2018-05-16T09:40:17.783Z,39.30
2018-05-16T09:41:21.026Z,39.42
2018-05-16T09:42:24.420Z,39.47
2018-05-16T09:43:27.659Z,39.34
2018-05-16T09:44:30.975Z,39.28
2018-05-16T09:45:34.388Z,39.16
2018-05-16T09:46:38.461Z,39.17
2018-05-16T09:47:41.807Z,39.13
2018-05-16T09:48:45.185Z,39.06
2018-05-16T09:49:48.509Z,39.05
2018-05-16T09:50:51.831Z,39.11
2018-05-16T09:51:55.153Z,39.17
2018-05-16T09:52:58.487Z,39.22
2018-05-16T09:54:01.808Z,39.18
2018-05-16T09:55:05.119Z,39.16
2018-05-16T09:56:08.472Z,39.16
2018-05-16T09:57:12.615Z,39.14
2018-05-16T09:58:15.958Z,39.15
2018-05-16T09:59:19.271Z,39.18
2018-05-16T10:00:28.105Z,39.14
2018-05-16T10:01:31.423Z,39.22
2018-05-16T10:02:34.801Z,39.33
2018-05-16T10:03:38.149Z,39.17
2018-05-16T10:04:41.486Z,39.07
2018-05-16T10:05:45.032Z,39.05
2018-05-16T10:06:48.350Z,38.95
2018-05-16T10:07:51.665Z,38.88
2018-05-16T10:08:55.056Z,38.87
2018-05-16T10:09:58.340Z,38.77
2018-05-16T10:11:01.660Z,38.72
2018-05-16T10:12:04.999Z,38.78
2018-05-16T10:13:08.355Z,38.95
2018-05-16T10:14:11.708Z,39.04
2018-05-16T10:15:15.034Z,39.07
2018-05-16T10:16:18.358Z,39.12
2018-05-16T10:17:21.666Z,39.24
2018-05-16T10:18:25.005Z,39.37
2018-05-16T10:19:28.358Z,39.47
2018-05-16T10:20:31.689Z,39.57
2018-05-16T10:21:35.033Z,39.50
2018-05-16T10:22:38.366Z,39.08
2018-05-16T10:23:41.795Z,39.01
2018-05-16T10:24:45.051Z,38.99
2018-05-16T10:25:48.388Z,38.95
2018-05-16T10:26:51.701Z,38.84
2018-05-16T10:27:55.046Z,38.68
2018-05-16T10:28:58.363Z,38.54
2018-05-16T10:30:01.778Z,38.50
2018-05-16T10:31:05.066Z,38.47
2018-05-16T10:32:08.381Z,38.39
2018-05-16T10:33:11.692Z,38.44
2018-05-16T10:34:15.019Z,38.43
2018-05-16T10:35:18.575Z,38.31
2018-05-16T10:36:21.645Z,38.19
2018-05-16T10:37:24.949Z,38.01
2018-05-16T10:38:28.296Z,38.00
2018-05-16T10:39:31.646Z,38.04
2018-05-16T10:40:34.963Z,38.19
2018-05-16T10:41:38.266Z,38.16
2018-05-16T10:42:41.579Z,37.96
2018-05-16T10:43:44.887Z,37.81
2018-05-16T10:44:48.198Z,37.77
2018-05-16T10:45:51.521Z,37.92
2018-05-16T10:46:54.972Z,37.98
2018-05-16T10:47:58.274Z,38.06
2018-05-16T10:49:01.594Z,38.07
2018-05-16T10:50:04.963Z,37.99
2018-05-16T10:51:08.306Z,38.03
2018-05-16T10:52:11.688Z,38.04
2018-05-16T10:53:14.933Z,38.02
2018-05-16T10:54:18.280Z,38.12
2018-05-16T10:55:21.599Z,38.25
2018-05-16T10:56:24.939Z,38.32
2018-05-16T10:57:28.443Z,38.41
2018-05-16T10:58:31.762Z,38.48
2018-05-16T10:59:35.112Z,38.65
2018-05-16T11:00:38.758Z,38.87
2018-05-16T11:01:42.094Z,39.12
2018-05-16T11:02:45.555Z,39.21
2018-05-16T11:03:48.913Z,39.21
2018-05-16T11:04:52.229Z,39.16
2018-05-16T11:05:55.574Z,39.12
2018-05-16T11:06:58.922Z,39.01
2018-05-16T11:08:02.316Z,39.04
2018-05-16T11:09:06.616Z,39.15
2018-05-16T11:10:09.936Z,39.45
2018-05-16T11:11:13.259Z,39.81
2018-05-16T11:12:16.727Z,40.15
2018-05-16T11:13:19.985Z,40.57
2018-05-16T11:14:23.287Z,41.19
2018-05-16T11:15:26.623Z,41.54
2018-05-16T11:16:29.949Z,42.20
2018-05-16T11:17:33.548Z,42.79
2018-05-16T11:18:36.857Z,43.23
2018-05-16T11:19:40.353Z,43.36
2018-05-16T11:20:43.681Z,43.26
2018-05-16T11:21:46.989Z,43.12
2018-05-16T11:22:50.327Z,42.88
2018-05-16T11:23:53.638Z,42.58
2018-05-16T11:24:56.950Z,42.32
2018-05-16T11:26:00.286Z,42.01
2018-05-16T11:27:03.605Z,41.73
2018-05-16T11:28:07.373Z,41.45
2018-05-16T11:29:12.560Z,41.24
2018-05-16T11:30:16.837Z,41.06
2018-05-16T11:31:20.171Z,40.81
2018-05-16T11:32:23.490Z,40.75
2018-05-16T11:33:26.824Z,40.60
2018-05-16T11:34:30.147Z,40.54
2018-05-16T11:35:33.472Z,40.47
2018-05-16T11:36:36.781Z,40.34
2018-05-16T11:37:40.125Z,39.98
2018-05-16T11:38:43.444Z,39.80
2018-05-16T11:39:46.784Z,39.64
2018-05-16T11:40:50.113Z,39.54
2018-05-16T11:41:53.422Z,39.49
2018-05-16T11:42:56.734Z,39.50
2018-05-16T11:44:00.073Z,39.58
2018-05-16T11:45:03.391Z,39.50
2018-05-16T11:46:06.699Z,39.40
2018-05-16T11:47:10.287Z,39.23
2018-05-16T11:48:13.611Z,39.06
2018-05-16T11:49:16.954Z,39.00
2018-05-16T11:50:20.274Z,39.07
2018-05-16T11:51:23.593Z,39.18
2018-05-16T11:52:26.913Z,39.27
2018-05-16T11:53:30.235Z,39.33
2018-05-16T11:54:33.769Z,39.29
2018-05-16T11:55:37.284Z,39.21
2018-05-16T11:56:40.604Z,39.22
2018-05-16T11:57:43.909Z,39.09
2018-05-16T11:58:47.233Z,39.04
2018-05-16T11:59:50.567Z,39.06
2018-05-16T12:00:53.871Z,39.06
2018-05-16T12:01:57.182Z,39.12
2018-05-16T12:03:00.501Z,39.10
2018-05-16T12:04:03.815Z,38.90
2018-05-16T12:05:07.150Z,38.82
2018-05-16T12:06:10.486Z,38.83
2018-05-16T12:07:13.830Z,38.91
2018-05-16T12:08:17.125Z,38.98
2018-05-16T12:09:20.450Z,39.08
2018-05-16T12:10:23.796Z,39.14
2018-05-16T12:11:27.098Z,39.17
2018-05-16T12:12:30.425Z,39.12
2018-05-16T12:13:33.731Z,39.17
2018-05-16T12:14:37.058Z,39.25
2018-05-16T12:15:40.391Z,39.27
2018-05-16T12:16:43.690Z,39.38
2018-05-16T12:17:47.011Z,39.45
2018-05-16T12:18:50.328Z,39.59
2018-05-16T12:19:53.684Z,39.66
2018-05-16T12:20:57.038Z,39.89
2018-05-16T12:22:00.351Z,40.07
2018-05-16T12:23:03.681Z,40.03
2018-05-16T12:24:06.997Z,39.98
2018-05-16T12:25:10.304Z,40.09
2018-05-16T12:26:13.674Z,40.16
2018-05-16T12:27:17.025Z,40.17
2018-05-16T12:28:20.352Z,40.17
2018-05-16T12:29:23.759Z,40.18
2018-05-16T12:30:27.063Z,40.21
2018-05-16T12:31:30.518Z,40.34
2018-05-16T12:32:33.832Z,40.52
2018-05-16T12:33:37.163Z,40.61
2018-05-16T12:34:40.483Z,40.31
2018-05-16T12:35:43.789Z,40.21
2018-05-16T12:36:47.114Z,40.26
2018-05-16T12:37:50.438Z,40.28
2018-05-16T12:38:53.740Z,40.24
2018-05-16T12:39:57.068Z,40.15
2018-05-16T12:41:00.381Z,39.98
2018-05-16T12:42:03.748Z,39.73
2018-05-16T12:43:22.897Z,39.52
2018-05-16T12:44:26.208Z,39.24
2018-05-16T12:45:29.638Z,39.23
2018-05-16T12:46:33.054Z,39.19
2018-05-16T12:47:36.535Z,39.23
2018-05-16T12:48:41.150Z,39.27
2018-05-16T12:49:44.469Z,39.28
2018-05-16T12:50:47.787Z,39.48
2018-05-16T12:51:51.098Z,39.67
2018-05-16T12:52:54.514Z,39.83
2018-05-16T12:53:57.908Z,39.97
2018-05-16T12:55:01.216Z,40.10
2018-05-16T12:56:04.562Z,40.18
2018-05-16T12:57:07.859Z,40.23
2018-05-16T12:58:11.196Z,40.39
2018-05-16T12:59:14.513Z,40.36
2018-05-16T13:00:17.853Z,40.31
2018-05-16T13:01:21.196Z,40.21
2018-05-16T13:02:24.571Z,40.21
2018-05-16T13:03:28.243Z,40.15
2018-05-16T13:04:31.568Z,40.12
2018-05-16T13:05:34.932Z,40.00
2018-05-16T13:06:38.230Z,39.95
2018-05-16T13:07:41.537Z,39.77
2018-05-16T13:08:44.880Z,39.43
2018-05-16T13:09:48.191Z,39.42
2018-05-16T13:10:51.551Z,39.53
2018-05-16T13:11:54.843Z,39.62
2018-05-16T13:12:58.208Z,39.82
2018-05-16T13:14:01.483Z,39.91
2018-05-16T13:15:04.788Z,39.98
2018-05-16T13:16:08.090Z,40.14
2018-05-16T13:17:11.400Z,40.26
2018-05-16T13:18:14.740Z,40.35
2018-05-16T13:19:18.069Z,40.20
2018-05-16T13:20:21.392Z,40.07
2018-05-16T13:21:24.734Z,40.12
2018-05-16T13:22:28.007Z,40.00
2018-05-16T13:23:31.342Z,40.01
2018-05-16T13:24:34.776Z,40.15
2018-05-16T13:25:38.081Z,40.11
2018-05-16T13:26:41.390Z,40.09
2018-05-16T13:27:44.688Z,39.99
2018-05-16T13:28:48.034Z,39.87
2018-05-16T13:29:51.382Z,39.66
2018-05-16T13:30:54.674Z,39.65
2018-05-16T13:31:58.000Z,39.64
2018-05-16T13:33:01.354Z,39.69
2018-05-16T13:34:04.685Z,39.61
2018-05-16T13:35:08.023Z,39.45
2018-05-16T13:36:11.525Z,39.23
2018-05-16T13:37:14.783Z,39.06
2018-05-16T13:38:18.168Z,38.92